sensor_id;sensor_type;location;lat;lon;timestamp;P1;durP1;ratioP1;P2;durP2;ratioP2
13218;SDS011;6674;49.152;11.918;2023-02-18T00:01:17;3.47;;;3.17;;
13218;SDS011;6674;49.152;11.918;2023-02-18T00:03:45;3.13;;;2.90;;
13218;SDS011;6674;49.152;11.918;2023-02-18T00:06:13;3.60;;;3.30;;
13218;SDS011;6674;49.152;11.918;2023-02-18T00:08:41;3.23;;;3.03;;
13218;SDS011;6674;49.152;11.918;2023-02-18T00:11:09;3.03;;;2.80;;
13218;SDS011;6674;49.152;11.918;2023-02-18T00:13:36;3.03;;;2.80;;
13218;SDS011;6674;49.152;11.918;2023-02-18T00:16:07;3.23;;;3.00;;
13218;SDS011;6674;49.152;11.918;2023-02-18T00:18:40;3.20;;;2.90;;
13218;SDS011;6674;49.152;11.918;2023-02-18T00:21:06;3.00;;;2.80;;
13218;SDS011;6674;49.152;11.918;2023-02-18T00:23:33;3.00;;;2.80;;
13218;SDS011;6674;49.152;11.918;2023-02-18T00:26:09;3.17;;;2.93;;
13218;SDS011;6674;49.152;11.918;2023-02-18T00:28:37;2.83;;;2.63;;
13218;SDS011;6674;49.152;11.918;2023-02-18T00:31:08;2.70;;;2.50;;
13218;SDS011;6674;49.152;11.918;2023-02-18T00:33:38;3.10;;;2.90;;
13218;SDS011;6674;49.152;11.918;2023-02-18T00:36:06;2.80;;;2.60;;
13218;SDS011;6674;49.152;11.918;2023-02-18T00:38:35;3.17;;;2.93;;
13218;SDS011;6674;49.152;11.918;2023-02-18T00:41:02;3.10;;;2.90;;
13218;SDS011;6674;49.152;11.918;2023-02-18T00:43:29;2.57;;;2.37;;
13218;SDS011;6674;49.152;11.918;2023-02-18T00:45:55;3.37;;;2.67;;
13218;SDS011;6674;49.152;11.918;2023-02-18T00:48:31;2.77;;;2.57;;
13218;SDS011;6674;49.152;11.918;2023-02-18T00:50:59;4.10;;;2.60;;
13218;SDS011;6674;49.152;11.918;2023-02-18T00:53:25;2.80;;;2.60;;
13218;SDS011;6674;49.152;11.918;2023-02-18T00:55:52;2.80;;;2.60;;
13218;SDS011;6674;49.152;11.918;2023-02-18T00:58:18;2.90;;;2.70;;
13218;SDS011;6674;49.152;11.918;2023-02-18T01:00:45;2.73;;;2.53;;
13218;SDS011;6674;49.152;11.918;2023-02-18T01:03:13;2.70;;;2.50;;
13218;SDS011;6674;49.152;11.918;2023-02-18T01:05:41;3.00;;;2.60;;
13218;SDS011;6674;49.152;11.918;2023-02-18T01:08:09;3.17;;;2.87;;
13218;SDS011;6674;49.152;11.918;2023-02-18T01:10:39;3.00;;;2.80;;
13218;SDS011;6674;49.152;11.918;2023-02-18T01:13:07;2.93;;;2.73;;
13218;SDS011;6674;49.152;11.918;2023-02-18T01:15:36;2.93;;;2.73;;
13218;SDS011;6674;49.152;11.918;2023-02-18T01:18:03;3.00;;;2.80;;
13218;SDS011;6674;49.152;11.918;2023-02-18T01:20:29;2.67;;;2.47;;
13218;SDS011;6674;49.152;11.918;2023-02-18T01:22:57;2.83;;;2.60;;
13218;SDS011;6674;49.152;11.918;2023-02-18T01:25:24;2.90;;;2.70;;
13218;SDS011;6674;49.152;11.918;2023-02-18T01:27:51;2.80;;;2.60;;
13218;SDS011;6674;49.152;11.918;2023-02-18T01:30:18;2.80;;;2.60;;
13218;SDS011;6674;49.152;11.918;2023-02-18T01:32:45;3.03;;;2.83;;
13218;SDS011;6674;49.152;11.918;2023-02-18T01:35:13;2.70;;;2.50;;
13218;SDS011;6674;49.152;11.918;2023-02-18T01:37:42;2.40;;;2.30;;
13218;SDS011;6674;49.152;11.918;2023-02-18T01:40:11;2.80;;;2.60;;
13218;SDS011;6674;49.152;11.918;2023-02-18T01:42:40;2.67;;;2.47;;
13218;SDS011;6674;49.152;11.918;2023-02-18T01:48:10;2.37;;;2.27;;
13218;SDS011;6674;49.152;11.918;2023-02-18T01:50:42;2.20;;;2.10;;
13218;SDS011;6674;49.152;11.918;2023-02-18T01:53:11;2.60;;;2.40;;
13218;SDS011;6674;49.152;11.918;2023-02-18T01:55:44;2.40;;;2.10;;
13218;SDS011;6674;49.152;11.918;2023-02-18T01:58:12;2.43;;;2.30;;
13218;SDS011;6674;49.152;11.918;2023-02-18T02:00:39;2.13;;;2.03;;
13218;SDS011;6674;49.152;11.918;2023-02-18T02:03:06;2.23;;;2.13;;
13218;SDS011;6674;49.152;11.918;2023-02-18T02:05:33;2.10;;;2.00;;
13218;SDS011;6674;49.152;11.918;2023-02-18T02:08:00;2.13;;;2.03;;
13218;SDS011;6674;49.152;11.918;2023-02-18T02:10:29;2.70;;;2.50;;
13218;SDS011;6674;49.152;11.918;2023-02-18T02:13:09;2.17;;;2.07;;
13218;SDS011;6674;49.152;11.918;2023-02-18T02:15:43;2.67;;;2.47;;
13218;SDS011;6674;49.152;11.918;2023-02-18T02:18:18;2.80;;;2.53;;
13218;SDS011;6674;49.152;11.918;2023-02-18T02:27:07;2.53;;;2.33;;
13218;SDS011;6674;49.152;11.918;2023-02-18T02:29:57;3.07;;;2.87;;
13218;SDS011;6674;49.152;11.918;2023-02-18T02:35:40;2.93;;;2.70;;
13218;SDS011;6674;49.152;11.918;2023-02-18T02:38:12;3.70;;;2.93;;
13218;SDS011;6674;49.152;11.918;2023-02-18T02:40:46;3.17;;;2.97;;
13218;SDS011;6674;49.152;11.918;2023-02-18T02:43:20;3.10;;;2.90;;
13218;SDS011;6674;49.152;11.918;2023-02-18T02:45:57;3.00;;;2.80;;
13218;SDS011;6674;49.152;11.918;2023-02-18T02:48:30;3.00;;;2.60;;
13218;SDS011;6674;49.152;11.918;2023-02-18T02:51:06;3.10;;;2.80;;
13218;SDS011;6674;49.152;11.918;2023-02-18T02:53:39;3.13;;;2.83;;
13218;SDS011;6674;49.152;11.918;2023-02-18T02:56:09;3.20;;;3.00;;
13218;SDS011;6674;49.152;11.918;2023-02-18T02:58:39;2.87;;;2.67;;
13218;SDS011;6674;49.152;11.918;2023-02-18T03:01:10;3.00;;;2.80;;
13218;SDS011;6674;49.152;11.918;2023-02-18T03:06:50;3.20;;;2.53;;
13218;SDS011;6674;49.152;11.918;2023-02-18T03:09:29;2.67;;;2.37;;
13218;SDS011;6674;49.152;11.918;2023-02-18T03:12:05;2.90;;;2.60;;
13218;SDS011;6674;49.152;11.918;2023-02-18T03:14:39;2.80;;;2.50;;
13218;SDS011;6674;49.152;11.918;2023-02-18T03:17:12;2.90;;;2.70;;
13218;SDS011;6674;49.152;11.918;2023-02-18T03:19:48;2.77;;;2.57;;
13218;SDS011;6674;49.152;11.918;2023-02-18T03:22:22;2.73;;;2.53;;
13218;SDS011;6674;49.152;11.918;2023-02-18T03:24:52;2.50;;;2.30;;
13218;SDS011;6674;49.152;11.918;2023-02-18T03:27:22;2.67;;;2.57;;
13218;SDS011;6674;49.152;11.918;2023-02-18T03:29:52;2.50;;;2.30;;
13218;SDS011;6674;49.152;11.918;2023-02-18T03:32:22;2.63;;;2.43;;
13218;SDS011;6674;49.152;11.918;2023-02-18T03:34:53;2.47;;;2.30;;
13218;SDS011;6674;49.152;11.918;2023-02-18T03:37:24;2.43;;;2.33;;
13218;SDS011;6674;49.152;11.918;2023-02-18T03:39:57;2.53;;;2.23;;
13218;SDS011;6674;49.152;11.918;2023-02-18T03:42:26;2.43;;;2.30;;
13218;SDS011;6674;49.152;11.918;2023-02-18T03:44:53;2.47;;;2.30;;
13218;SDS011;6674;49.152;11.918;2023-02-18T03:47:20;2.70;;;2.50;;
13218;SDS011;6674;49.152;11.918;2023-02-18T03:49:47;2.30;;;2.07;;
13218;SDS011;6674;49.152;11.918;2023-02-18T03:52:13;2.73;;;2.30;;
13218;SDS011;6674;49.152;11.918;2023-02-18T03:54:41;2.83;;;2.40;;
13218;SDS011;6674;49.152;11.918;2023-02-18T03:57:08;2.50;;;2.30;;
13218;SDS011;6674;49.152;11.918;2023-02-18T03:59:34;2.77;;;2.37;;
13218;SDS011;6674;49.152;11.918;2023-02-18T04:02:01;2.83;;;2.57;;
13218;SDS011;6674;49.152;11.918;2023-02-18T04:04:28;2.40;;;2.20;;
13218;SDS011;6674;49.152;11.918;2023-02-18T04:06:55;2.17;;;1.90;;
13218;SDS011;6674;49.152;11.918;2023-02-18T04:09:22;2.20;;;2.10;;
13218;SDS011;6674;49.152;11.918;2023-02-18T04:11:50;3.07;;;2.37;;
13218;SDS011;6674;49.152;11.918;2023-02-18T04:14:17;3.20;;;2.73;;
13218;SDS011;6674;49.152;11.918;2023-02-18T04:16:44;2.47;;;2.30;;
13218;SDS011;6674;49.152;11.918;2023-02-18T04:19:10;2.70;;;2.50;;
13218;SDS011;6674;49.152;11.918;2023-02-18T04:21:37;2.50;;;2.30;;
13218;SDS011;6674;49.152;11.918;2023-02-18T04:24:04;3.00;;;2.70;;
13218;SDS011;6674;49.152;11.918;2023-02-18T04:26:31;2.43;;;2.13;;
13218;SDS011;6674;49.152;11.918;2023-02-18T04:29:07;3.50;;;2.40;;
13218;SDS011;6674;49.152;11.918;2023-02-18T04:31:36;2.80;;;2.60;;
13218;SDS011;6674;49.152;11.918;2023-02-18T04:34:02;3.00;;;2.23;;
13218;SDS011;6674;49.152;11.918;2023-02-18T04:36:31;2.90;;;2.70;;
13218;SDS011;6674;49.152;11.918;2023-02-18T04:38:57;2.90;;;2.70;;
13218;SDS011;6674;49.152;11.918;2023-02-18T04:41:24;3.80;;;2.50;;
13218;SDS011;6674;49.152;11.918;2023-02-18T04:43:51;2.70;;;2.50;;
13218;SDS011;6674;49.152;11.918;2023-02-18T04:46:19;2.50;;;2.40;;
13218;SDS011;6674;49.152;11.918;2023-02-18T04:48:45;2.80;;;2.60;;
13218;SDS011;6674;49.152;11.918;2023-02-18T04:51:12;3.03;;;2.83;;
13218;SDS011;6674;49.152;11.918;2023-02-18T04:53:39;3.00;;;2.80;;
13218;SDS011;6674;49.152;11.918;2023-02-18T04:56:05;2.80;;;2.60;;
13218;SDS011;6674;49.152;11.918;2023-02-18T04:58:32;3.13;;;2.93;;
13218;SDS011;6674;49.152;11.918;2023-02-18T05:00:59;3.60;;;3.30;;
13218;SDS011;6674;49.152;11.918;2023-02-18T05:03:27;3.60;;;3.30;;
13218;SDS011;6674;49.152;11.918;2023-02-18T05:05:54;3.90;;;3.60;;
13218;SDS011;6674;49.152;11.918;2023-02-18T05:08:21;3.53;;;3.23;;
13218;SDS011;6674;49.152;11.918;2023-02-18T05:10:47;4.40;;;3.90;;
13218;SDS011;6674;49.152;11.918;2023-02-18T05:13:15;4.10;;;3.70;;
13218;SDS011;6674;49.152;11.918;2023-02-18T05:15:42;4.00;;;3.70;;
13218;SDS011;6674;49.152;11.918;2023-02-18T05:18:15;4.07;;;3.67;;
13218;SDS011;6674;49.152;11.918;2023-02-18T05:20:43;3.87;;;3.57;;
13218;SDS011;6674;49.152;11.918;2023-02-18T05:23:11;4.27;;;3.97;;
13218;SDS011;6674;49.152;11.918;2023-02-18T05:25:38;4.20;;;3.80;;
13218;SDS011;6674;49.152;11.918;2023-02-18T05:28:07;4.33;;;3.93;;
13218;SDS011;6674;49.152;11.918;2023-02-18T05:30:34;4.00;;;3.60;;
13218;SDS011;6674;49.152;11.918;2023-02-18T05:33:01;4.33;;;3.83;;
13218;SDS011;6674;49.152;11.918;2023-02-18T05:35:28;3.60;;;3.30;;
13218;SDS011;6674;49.152;11.918;2023-02-18T05:37:58;3.70;;;3.40;;
13218;SDS011;6674;49.152;11.918;2023-02-18T05:40:26;3.93;;;3.63;;
13218;SDS011;6674;49.152;11.918;2023-02-18T05:42:53;3.70;;;3.50;;
13218;SDS011;6674;49.152;11.918;2023-02-18T05:45:20;4.23;;;3.93;;
13218;SDS011;6674;49.152;11.918;2023-02-18T05:47:48;4.33;;;3.50;;
13218;SDS011;6674;49.152;11.918;2023-02-18T05:50:15;3.60;;;3.30;;
13218;SDS011;6674;49.152;11.918;2023-02-18T05:52:43;4.03;;;3.70;;
13218;SDS011;6674;49.152;11.918;2023-02-18T05:55:11;6.33;;;4.20;;
13218;SDS011;6674;49.152;11.918;2023-02-18T05:57:40;4.07;;;3.77;;
13218;SDS011;6674;49.152;11.918;2023-02-18T06:00:19;4.00;;;3.70;;
13218;SDS011;6674;49.152;11.918;2023-02-18T06:03:02;4.23;;;3.93;;
13218;SDS011;6674;49.152;11.918;2023-02-18T06:05:35;4.47;;;4.10;;
13218;SDS011;6674;49.152;11.918;2023-02-18T06:08:08;4.67;;;4.30;;
13218;SDS011;6674;49.152;11.918;2023-02-18T06:10:42;4.13;;;3.80;;
13218;SDS011;6674;49.152;11.918;2023-02-18T06:13:09;4.67;;;4.27;;
13218;SDS011;6674;49.152;11.918;2023-02-18T06:15:35;4.23;;;3.83;;
13218;SDS011;6674;49.152;11.918;2023-02-18T06:18:04;4.10;;;3.70;;
13218;SDS011;6674;49.152;11.918;2023-02-18T06:20:33;4.53;;;4.23;;
13218;SDS011;6674;49.152;11.918;2023-02-18T06:22:59;5.60;;;4.40;;
13218;SDS011;6674;49.152;11.918;2023-02-18T06:25:27;4.80;;;4.40;;
13218;SDS011;6674;49.152;11.918;2023-02-18T06:27:55;4.30;;;4.00;;
13218;SDS011;6674;49.152;11.918;2023-02-18T06:30:22;4.90;;;4.50;;
13218;SDS011;6674;49.152;11.918;2023-02-18T06:32:48;5.20;;;4.70;;
13218;SDS011;6674;49.152;11.918;2023-02-18T06:35:15;5.37;;;4.87;;
13218;SDS011;6674;49.152;11.918;2023-02-18T06:37:42;4.90;;;4.50;;
13218;SDS011;6674;49.152;11.918;2023-02-18T06:40:09;6.00;;;5.40;;
13218;SDS011;6674;49.152;11.918;2023-02-18T06:42:36;6.30;;;5.80;;
13218;SDS011;6674;49.152;11.918;2023-02-18T06:45:05;6.47;;;5.70;;
13218;SDS011;6674;49.152;11.918;2023-02-18T06:47:33;5.97;;;5.47;;
13218;SDS011;6674;49.152;11.918;2023-02-18T06:50:00;5.90;;;5.40;;
13218;SDS011;6674;49.152;11.918;2023-02-18T06:52:26;5.60;;;5.20;;
13218;SDS011;6674;49.152;11.918;2023-02-18T06:54:54;6.93;;;6.03;;
13218;SDS011;6674;49.152;11.918;2023-02-18T06:57:27;6.83;;;6.03;;
13218;SDS011;6674;49.152;11.918;2023-02-18T06:59:56;6.87;;;6.23;;
13218;SDS011;6674;49.152;11.918;2023-02-18T07:02:24;7.60;;;6.90;;
13218;SDS011;6674;49.152;11.918;2023-02-18T07:04:50;6.60;;;5.97;;
13218;SDS011;6674;49.152;11.918;2023-02-18T07:07:17;7.70;;;6.90;;
13218;SDS011;6674;49.152;11.918;2023-02-18T07:09:44;7.00;;;6.40;;
13218;SDS011;6674;49.152;11.918;2023-02-18T07:12:11;7.47;;;6.60;;
13218;SDS011;6674;49.152;11.918;2023-02-18T07:14:38;7.43;;;6.73;;
13218;SDS011;6674;49.152;11.918;2023-02-18T07:17:05;7.20;;;6.50;;
13218;SDS011;6674;49.152;11.918;2023-02-18T07:19:33;7.97;;;7.17;;
13218;SDS011;6674;49.152;11.918;2023-02-18T07:21:59;6.87;;;6.10;;
13218;SDS011;6674;49.152;11.918;2023-02-18T07:24:27;7.40;;;6.70;;
13218;SDS011;6674;49.152;11.918;2023-02-18T07:26:54;7.57;;;6.70;;
13218;SDS011;6674;49.152;11.918;2023-02-18T07:29:26;8.10;;;7.27;;
13218;SDS011;6674;49.152;11.918;2023-02-18T07:31:53;7.83;;;7.03;;
13218;SDS011;6674;49.152;11.918;2023-02-18T07:34:19;8.37;;;7.57;;
13218;SDS011;6674;49.152;11.918;2023-02-18T07:36:47;8.00;;;7.20;;
13218;SDS011;6674;49.152;11.918;2023-02-18T07:39:14;7.50;;;6.83;;
13218;SDS011;6674;49.152;11.918;2023-02-18T07:41:44;7.53;;;6.83;;
13218;SDS011;6674;49.152;11.918;2023-02-18T07:44:11;7.67;;;6.87;;
13218;SDS011;6674;49.152;11.918;2023-02-18T07:46:41;7.80;;;7.10;;
13218;SDS011;6674;49.152;11.918;2023-02-18T07:49:08;6.93;;;6.23;;
13218;SDS011;6674;49.152;11.918;2023-02-18T07:51:35;6.57;;;5.97;;
13218;SDS011;6674;49.152;11.918;2023-02-18T07:54:05;6.97;;;6.23;;
13218;SDS011;6674;49.152;11.918;2023-02-18T07:56:32;6.63;;;6.03;;
13218;SDS011;6674;49.152;11.918;2023-02-18T07:58:59;5.70;;;5.20;;
13218;SDS011;6674;49.152;11.918;2023-02-18T08:01:25;6.10;;;5.50;;
13218;SDS011;6674;49.152;11.918;2023-02-18T08:03:53;5.93;;;5.43;;
13218;SDS011;6674;49.152;11.918;2023-02-18T08:06:20;5.50;;;5.00;;
13218;SDS011;6674;49.152;11.918;2023-02-18T08:08:51;5.13;;;4.63;;
13218;SDS011;6674;49.152;11.918;2023-02-18T08:11:18;4.63;;;4.23;;
13218;SDS011;6674;49.152;11.918;2023-02-18T08:13:47;5.57;;;4.87;;
13218;SDS011;6674;49.152;11.918;2023-02-18T08:16:14;5.13;;;4.73;;
13218;SDS011;6674;49.152;11.918;2023-02-18T08:18:41;5.47;;;4.97;;
13218;SDS011;6674;49.152;11.918;2023-02-18T08:21:08;4.60;;;4.27;;
13218;SDS011;6674;49.152;11.918;2023-02-18T08:23:35;5.23;;;4.73;;
13218;SDS011;6674;49.152;11.918;2023-02-18T08:26:03;4.93;;;4.43;;
13218;SDS011;6674;49.152;11.918;2023-02-18T08:28:32;4.57;;;4.17;;
13218;SDS011;6674;49.152;11.918;2023-02-18T08:30:59;4.27;;;3.97;;
13218;SDS011;6674;49.152;11.918;2023-02-18T08:33:26;4.87;;;4.37;;
13218;SDS011;6674;49.152;11.918;2023-02-18T08:35:59;4.67;;;4.27;;
13218;SDS011;6674;49.152;11.918;2023-02-18T08:38:28;5.50;;;3.73;;
13218;SDS011;6674;49.152;11.918;2023-02-18T08:40:59;3.90;;;3.57;;
13218;SDS011;6674;49.152;11.918;2023-02-18T08:43:27;3.87;;;3.57;;
13218;SDS011;6674;49.152;11.918;2023-02-18T08:45:55;3.70;;;3.40;;
13218;SDS011;6674;49.152;11.918;2023-02-18T08:48:24;4.20;;;3.90;;
13218;SDS011;6674;49.152;11.918;2023-02-18T08:50:51;4.07;;;3.77;;
13218;SDS011;6674;49.152;11.918;2023-02-18T08:53:18;3.90;;;3.60;;
13218;SDS011;6674;49.152;11.918;2023-02-18T08:55:44;3.33;;;3.13;;
13218;SDS011;6674;49.152;11.918;2023-02-18T08:58:12;3.50;;;3.20;;
13218;SDS011;6674;49.152;11.918;2023-02-18T09:00:41;3.53;;;3.23;;
13218;SDS011;6674;49.152;11.918;2023-02-18T09:03:12;3.30;;;3.10;;
13218;SDS011;6674;49.152;11.918;2023-02-18T09:05:39;3.23;;;3.03;;
13218;SDS011;6674;49.152;11.918;2023-02-18T09:08:08;3.20;;;3.00;;
13218;SDS011;6674;49.152;11.918;2023-02-18T09:10:34;3.33;;;3.03;;
13218;SDS011;6674;49.152;11.918;2023-02-18T09:13:01;3.27;;;3.00;;
13218;SDS011;6674;49.152;11.918;2023-02-18T09:15:28;3.20;;;3.00;;
13218;SDS011;6674;49.152;11.918;2023-02-18T09:17:56;3.30;;;3.10;;
13218;SDS011;6674;49.152;11.918;2023-02-18T09:20:25;3.57;;;3.27;;
13218;SDS011;6674;49.152;11.918;2023-02-18T09:22:51;3.50;;;3.20;;
13218;SDS011;6674;49.152;11.918;2023-02-18T09:25:19;3.17;;;2.97;;
13218;SDS011;6674;49.152;11.918;2023-02-18T09:27:46;3.57;;;3.27;;
13218;SDS011;6674;49.152;11.918;2023-02-18T09:30:13;3.40;;;3.10;;
13218;SDS011;6674;49.152;11.918;2023-02-18T09:32:42;3.20;;;3.00;;
13218;SDS011;6674;49.152;11.918;2023-02-18T09:35:09;3.00;;;2.77;;
13218;SDS011;6674;49.152;11.918;2023-02-18T09:37:37;3.10;;;2.90;;
13218;SDS011;6674;49.152;11.918;2023-02-18T09:40:05;3.57;;;3.20;;
13218;SDS011;6674;49.152;11.918;2023-02-18T09:42:33;3.13;;;2.93;;
13218;SDS011;6674;49.152;11.918;2023-02-18T09:45:01;3.70;;;3.40;;
13218;SDS011;6674;49.152;11.918;2023-02-18T09:47:34;2.80;;;2.60;;
13218;SDS011;6674;49.152;11.918;2023-02-18T09:50:04;2.83;;;2.60;;
13218;SDS011;6674;49.152;11.918;2023-02-18T09:52:42;3.20;;;3.00;;
13218;SDS011;6674;49.152;11.918;2023-02-18T09:55:14;3.40;;;3.10;;
13218;SDS011;6674;49.152;11.918;2023-02-18T09:57:44;2.90;;;2.70;;
13218;SDS011;6674;49.152;11.918;2023-02-18T10:00:14;5.13;;;3.10;;
13218;SDS011;6674;49.152;11.918;2023-02-18T10:02:45;3.07;;;2.87;;
13218;SDS011;6674;49.152;11.918;2023-02-18T10:05:19;2.80;;;2.60;;
13218;SDS011;6674;49.152;11.918;2023-02-18T10:07:52;2.87;;;2.67;;
13218;SDS011;6674;49.152;11.918;2023-02-18T10:10:31;2.93;;;2.60;;
13218;SDS011;6674;49.152;11.918;2023-02-18T10:13:02;2.83;;;2.57;;
13218;SDS011;6674;49.152;11.918;2023-02-18T10:15:29;2.77;;;2.53;;
13218;SDS011;6674;49.152;11.918;2023-02-18T10:17:58;2.43;;;2.30;;
13218;SDS011;6674;49.152;11.918;2023-02-18T10:20:27;2.47;;;2.27;;
13218;SDS011;6674;49.152;11.918;2023-02-18T10:22:57;2.93;;;2.73;;
13218;SDS011;6674;49.152;11.918;2023-02-18T10:25:27;2.70;;;2.50;;
13218;SDS011;6674;49.152;11.918;2023-02-18T10:27:54;2.57;;;2.37;;
13218;SDS011;6674;49.152;11.918;2023-02-18T10:30:26;2.73;;;2.47;;
13218;SDS011;6674;49.152;11.918;2023-02-18T10:32:59;2.80;;;2.47;;
13218;SDS011;6674;49.152;11.918;2023-02-18T10:35:37;2.73;;;2.53;;
13218;SDS011;6674;49.152;11.918;2023-02-18T10:38:14;2.70;;;2.50;;
13218;SDS011;6674;49.152;11.918;2023-02-18T10:40:50;2.67;;;2.47;;
13218;SDS011;6674;49.152;11.918;2023-02-18T10:43:25;2.60;;;2.40;;
13218;SDS011;6674;49.152;11.918;2023-02-18T10:45:59;2.87;;;2.50;;
13218;SDS011;6674;49.152;11.918;2023-02-18T10:48:37;2.53;;;2.33;;
13218;SDS011;6674;49.152;11.918;2023-02-18T10:51:15;2.57;;;2.37;;
13218;SDS011;6674;49.152;11.918;2023-02-18T10:53:46;2.57;;;2.37;;
13218;SDS011;6674;49.152;11.918;2023-02-18T10:56:33;2.80;;;2.60;;
13218;SDS011;6674;49.152;11.918;2023-02-18T10:59:09;2.77;;;2.57;;
13218;SDS011;6674;49.152;11.918;2023-02-18T11:01:37;2.53;;;2.33;;
13218;SDS011;6674;49.152;11.918;2023-02-18T11:04:07;2.83;;;2.63;;
13218;SDS011;6674;49.152;11.918;2023-02-18T11:06:41;2.13;;;2.03;;
13218;SDS011;6674;49.152;11.918;2023-02-18T11:12:09;2.23;;;2.10;;
13218;SDS011;6674;49.152;11.918;2023-02-18T11:14:41;2.37;;;2.17;;
13218;SDS011;6674;49.152;11.918;2023-02-18T11:17:18;2.40;;;2.20;;
13218;SDS011;6674;49.152;11.918;2023-02-18T11:19:54;2.80;;;2.50;;
13218;SDS011;6674;49.152;11.918;2023-02-18T11:22:22;2.90;;;2.70;;
13218;SDS011;6674;49.152;11.918;2023-02-18T11:24:55;2.90;;;2.70;;
13218;SDS011;6674;49.152;11.918;2023-02-18T11:27:24;2.73;;;2.53;;
13218;SDS011;6674;49.152;11.918;2023-02-18T11:29:55;2.37;;;2.17;;
13218;SDS011;6674;49.152;11.918;2023-02-18T11:32:27;2.47;;;2.30;;
13218;SDS011;6674;49.152;11.918;2023-02-18T11:34:55;2.60;;;2.40;;
13218;SDS011;6674;49.152;11.918;2023-02-18T11:37:22;2.33;;;2.03;;
13218;SDS011;6674;49.152;11.918;2023-02-18T11:39:49;2.63;;;2.43;;
13218;SDS011;6674;49.152;11.918;2023-02-18T11:42:21;2.70;;;2.50;;
13218;SDS011;6674;49.152;11.918;2023-02-18T11:44:51;2.70;;;2.43;;
13218;SDS011;6674;49.152;11.918;2023-02-18T11:47:20;3.30;;;2.47;;
13218;SDS011;6674;49.152;11.918;2023-02-18T11:50:01;2.30;;;2.10;;
13218;SDS011;6674;49.152;11.918;2023-02-18T11:52:40;2.70;;;2.50;;
13218;SDS011;6674;49.152;11.918;2023-02-18T11:55:12;2.57;;;2.37;;
13218;SDS011;6674;49.152;11.918;2023-02-18T11:57:42;2.33;;;2.23;;
13218;SDS011;6674;49.152;11.918;2023-02-18T12:02:45;2.43;;;2.23;;
13218;SDS011;6674;49.152;11.918;2023-02-18T12:05:13;2.00;;;1.87;;
13218;SDS011;6674;49.152;11.918;2023-02-18T12:07:44;2.50;;;2.30;;
13218;SDS011;6674;49.152;11.918;2023-02-18T12:10:14;2.17;;;2.03;;
13218;SDS011;6674;49.152;11.918;2023-02-18T12:12:49;2.27;;;1.80;;
13218;SDS011;6674;49.152;11.918;2023-02-18T12:15:23;2.30;;;2.10;;
13218;SDS011;6674;49.152;11.918;2023-02-18T12:18:02;2.60;;;2.30;;
13218;SDS011;6674;49.152;11.918;2023-02-18T12:20:53;1.90;;;1.70;;
13218;SDS011;6674;49.152;11.918;2023-02-18T12:23:35;1.70;;;1.60;;
13218;SDS011;6674;49.152;11.918;2023-02-18T12:26:09;2.00;;;1.90;;
13218;SDS011;6674;49.152;11.918;2023-02-18T12:28:47;2.53;;;1.77;;
13218;SDS011;6674;49.152;11.918;2023-02-18T12:34:36;1.87;;;1.77;;
13218;SDS011;6674;49.152;11.918;2023-02-18T12:37:17;1.80;;;1.70;;
13218;SDS011;6674;49.152;11.918;2023-02-18T12:40:03;2.10;;;1.70;;
13218;SDS011;6674;49.152;11.918;2023-02-18T12:42:49;1.90;;;1.80;;
13218;SDS011;6674;49.152;11.918;2023-02-18T12:45:30;1.53;;;1.43;;
13218;SDS011;6674;49.152;11.918;2023-02-18T12:51:21;1.50;;;1.40;;
13218;SDS011;6674;49.152;11.918;2023-02-18T12:54:08;1.70;;;1.57;;
13218;SDS011;6674;49.152;11.918;2023-02-18T12:57:04;2.30;;;1.83;;
13218;SDS011;6674;49.152;11.918;2023-02-18T13:02:48;1.60;;;1.50;;
13218;SDS011;6674;49.152;11.918;2023-02-18T13:05:30;1.73;;;1.50;;
13218;SDS011;6674;49.152;11.918;2023-02-18T13:08:07;1.70;;;1.60;;
13218;SDS011;6674;49.152;11.918;2023-02-18T13:10:53;1.50;;;1.40;;
13218;SDS011;6674;49.152;11.918;2023-02-18T13:13:27;2.03;;;1.43;;
13218;SDS011;6674;49.152;11.918;2023-02-18T13:15:58;1.80;;;1.50;;
13218;SDS011;6674;49.152;11.918;2023-02-18T13:18:31;2.07;;;1.50;;
13218;SDS011;6674;49.152;11.918;2023-02-18T13:21:02;1.60;;;1.50;;
13218;SDS011;6674;49.152;11.918;2023-02-18T13:23:34;2.07;;;1.87;;
13218;SDS011;6674;49.152;11.918;2023-02-18T13:26:05;1.50;;;1.40;;
13218;SDS011;6674;49.152;11.918;2023-02-18T13:28:39;1.83;;;1.40;;
13218;SDS011;6674;49.152;11.918;2023-02-18T13:31:14;1.23;;;1.13;;
13218;SDS011;6674;49.152;11.918;2023-02-18T13:33:51;1.87;;;1.63;;
13218;SDS011;6674;49.152;11.918;2023-02-18T13:36:30;2.00;;;1.60;;
13218;SDS011;6674;49.152;11.918;2023-02-18T13:39:05;1.50;;;1.40;;
13218;SDS011;6674;49.152;11.918;2023-02-18T13:41:35;2.77;;;1.60;;
13218;SDS011;6674;49.152;11.918;2023-02-18T13:47:38;3.50;;;1.60;;
13218;SDS011;6674;49.152;11.918;2023-02-18T13:50:22;1.80;;;1.47;;
13218;SDS011;6674;49.152;11.918;2023-02-18T13:52:56;1.63;;;1.40;;
13218;SDS011;6674;49.152;11.918;2023-02-18T13:55:38;1.70;;;1.60;;
13218;SDS011;6674;49.152;11.918;2023-02-18T13:58:10;1.70;;;1.60;;
13218;SDS011;6674;49.152;11.918;2023-02-18T14:00:41;1.33;;;1.30;;
13218;SDS011;6674;49.152;11.918;2023-02-18T14:03:27;1.87;;;1.67;;
13218;SDS011;6674;49.152;11.918;2023-02-18T14:05:59;1.80;;;1.70;;
13218;SDS011;6674;49.152;11.918;2023-02-18T14:08:30;1.67;;;1.57;;
13218;SDS011;6674;49.152;11.918;2023-02-18T14:20:30;2.13;;;1.83;;
13218;SDS011;6674;49.152;11.918;2023-02-18T14:23:42;2.50;;;1.90;;
13218;SDS011;6674;49.152;11.918;2023-02-18T14:26:06;1.77;;;1.67;;
13218;SDS011;6674;49.152;11.918;2023-02-18T14:28:36;2.23;;;1.70;;
13218;SDS011;6674;49.152;11.918;2023-02-18T14:31:14;5.80;;;1.80;;
13218;SDS011;6674;49.152;11.918;2023-02-18T14:33:50;2.20;;;1.80;;
13218;SDS011;6674;49.152;11.918;2023-02-18T14:36:30;1.97;;;1.63;;
13218;SDS011;6674;49.152;11.918;2023-02-18T14:39:01;1.90;;;1.70;;
13218;SDS011;6674;49.152;11.918;2023-02-18T14:41:41;1.87;;;1.77;;
13218;SDS011;6674;49.152;11.918;2023-02-18T14:44:19;3.67;;;2.40;;
13218;SDS011;6674;49.152;11.918;2023-02-18T14:47:01;1.97;;;1.83;;
13218;SDS011;6674;49.152;11.918;2023-02-18T14:49:37;2.00;;;1.90;;
13218;SDS011;6674;49.152;11.918;2023-02-18T14:52:09;1.80;;;1.70;;
13218;SDS011;6674;49.152;11.918;2023-02-18T14:54:39;2.37;;;2.20;;
13218;SDS011;6674;49.152;11.918;2023-02-18T14:57:08;2.23;;;2.10;;
13218;SDS011;6674;49.152;11.918;2023-02-18T14:59:41;2.60;;;2.10;;
13218;SDS011;6674;49.152;11.918;2023-02-18T15:02:13;2.40;;;2.20;;
13218;SDS011;6674;49.152;11.918;2023-02-18T15:04:43;2.17;;;2.07;;
13218;SDS011;6674;49.152;11.918;2023-02-18T15:07:11;2.17;;;2.07;;
13218;SDS011;6674;49.152;11.918;2023-02-18T15:09:45;2.30;;;2.20;;
13218;SDS011;6674;49.152;11.918;2023-02-18T15:12:16;2.40;;;2.20;;
13218;SDS011;6674;49.152;11.918;2023-02-18T15:14:47;2.33;;;2.10;;
13218;SDS011;6674;49.152;11.918;2023-02-18T15:17:17;2.70;;;2.50;;
13218;SDS011;6674;49.152;11.918;2023-02-18T15:19:46;4.03;;;2.50;;
13218;SDS011;6674;49.152;11.918;2023-02-18T15:22:16;2.40;;;2.20;;
13218;SDS011;6674;49.152;11.918;2023-02-18T15:24:44;2.50;;;2.30;;
13218;SDS011;6674;49.152;11.918;2023-02-18T15:27:11;2.70;;;2.50;;
13218;SDS011;6674;49.152;11.918;2023-02-18T15:29:43;2.50;;;2.30;;
13218;SDS011;6674;49.152;11.918;2023-02-18T15:32:15;2.80;;;2.33;;
13218;SDS011;6674;49.152;11.918;2023-02-18T15:34:44;3.30;;;2.70;;
13218;SDS011;6674;49.152;11.918;2023-02-18T15:37:12;2.60;;;2.40;;
13218;SDS011;6674;49.152;11.918;2023-02-18T15:39:40;2.20;;;2.10;;
13218;SDS011;6674;49.152;11.918;2023-02-18T15:42:15;3.17;;;2.60;;
13218;SDS011;6674;49.152;11.918;2023-02-18T15:44:52;2.50;;;2.30;;
13218;SDS011;6674;49.152;11.918;2023-02-18T15:47:22;2.70;;;2.50;;
13218;SDS011;6674;49.152;11.918;2023-02-18T15:49:50;2.70;;;2.30;;
13218;SDS011;6674;49.152;11.918;2023-02-18T15:52:22;2.67;;;2.47;;